メインページ
METAR-TAF:

METAR-TAF

空港 :

ネータージー・スバース・チャンドラ・ボース国際空港

コルカタ, インド

緯度: 22-39N, 経度: 088-27E, 海抜: 4m

現時点の気象観測

当レポートは11分前の03:00(UTC)に作成
の風 8kt
気温 31°C
湿度 71%
気圧 1006 hPa
視程: 3500m
高度2000ftの雲は散在している
煙霧

METAR: VECC 210300Z 19008KT 3500 HZ SCT020 31/25 Q1006 NOSIG

時間: 08:41 (03:11 UTC)

予報

当レポートは1時間11分前の02:00(UTC)に作成
予報は21日の 03時(UTC)から 21日の 12時(UTC)まで有効
の風 8kt
視程: 3500m
高度2000ftの雲は散在している
高度10000ftの雲は散在している
煙霧
21日の 09時(UTC)から 21日の 12時(UTC)まで一時的に
西/北西の風 20kt、最大30ktの突風を伴う
視程: 1500m
高度1500ftの雲は散在している
高度2500ftの雲はほとんどない, 積乱雲.
高度9000ftの千切れ雲あり
激しい雷雨, 雨

TAF: VECC 210200Z 2103/2112 19008KT 3500 HZ SCT020 SCT100 TEMPO 2109/2112 30020G30KT 1500 TSRA SCT015 FEW025CB BKN090

4,000以上の空港の気象観測と天気予報(METAR報とTAF報)

利用可能な観測所は地図上に黄色い丸と赤い丸で示す。

丸の上にカーソルを重ねると観測所名を参照できる。

次にクリックすると気象観測と天気予報を参照できる。

マップの切り替え:黒色「×」印の緑ボタンをクリックして拡大、「-」印の緑ボタンをクリックして縮小、緑色の三角印をクリックして隣りの地図に切り替え


METAR-TAF: